Bookmark and Share
Track history (hours):
 

Helena

Last reported at 2014-Apr-22 04:09 UTC. Time now 2014-Apr-25 06:00 UTC.
Position N 56°05' E 016°49'.

Length 169 m; draft 6.4 m.

Type: Cargo ship. MMSI: 265145000.

NotesDate/timePositionNaut miles runAvg speedWind from/ knotsBaromVisibWave heightAir tempDewpointWater temp
2014-Apr-22 04:09N 56°05' E 016°49'915.4
2014-Apr-22 03:33N 56°01' E 016°35'1615.3
2014-Apr-22 02:31N 55°53' E 016°10'3015.0
2014-Apr-22 00:32N 55°38' E 015°24'1414.8
2014-Apr-21 23:34N 55°31' E 015°01'1515.2
2014-Apr-21 22:33N 55°23' E 014°38'1515.2
2014-Apr-21 21:34N 55°12' E 014°21'1515.2
2014-Apr-21 20:33N 54°60' E 014°04'1515.4
2014-Apr-21 19:33N 54°55' E 013°39'1514.7
2014-Apr-21 18:33N 54°51' E 013°15'1514.7
2014-Apr-21 17:33N 54°46' E 012°50'1414.3
2014-Apr-21 16:33N 54°37' E 012°31'1413.8
2014-Apr-21 15:33N 54°27' E 012°14'1313.2
2014-Apr-21 14:33N 54°21' E 011°55'1414.4
2014-Apr-21 13:33N 54°14' E 011°33'1514.8
2014-Apr-21 12:33N 54°06' E 011°11'3 0.3
2014-Apr-21 02:33N 54°06' E 011°07'1212.1
2014-Apr-21 01:33N 54°13' E 011°24'1212.0
2014-Apr-21 00:33N 54°20' E 011°41'1212.1
2014-Apr-20 23:33N 54°26' E 011°59'1111.1
2014-Apr-20 22:33N 54°33' E 012°13'1212.0
2014-Apr-20 21:33N 54°41' E 012°28'1212.3
2014-Apr-20 20:33N 54°48' E 012°46'1010.3
2014-Apr-20 19:33N 54°51' E 013°03'1110.5
2014-Apr-20 18:32N 54°55' E 013°21'1010.0
2014-Apr-20 17:33N 54°58' E 013°37'7 7.5
2014-Apr-20 16:33N 55°01' E 013°49'8 8.2
2014-Apr-20 15:33N 55°04' E 014°03'8 7.8
2014-Apr-20 14:33N 55°09' E 014°12'8 7.8
2014-Apr-20 13:33N 55°15' E 014°21'7 7.4
2014-Apr-20 12:33N 55°21' E 014°29'7 7.3
2014-Apr-20 11:33N 55°27' E 014°38'8 7.5
2014-Apr-20 10:33N 55°30' E 014°49'8 7.9
2014-Apr-20 09:33N 55°35' E 015°01'8 8.1
2014-Apr-20 08:33N 55°39' E 015°13'8 8.0
2014-Apr-20 07:32N 55°43' E 015°26'12 9.8
2014-Apr-20 06:21N 55°49' E 015°44'8 9.9
2014-Apr-20 05:32N 55°53' E 015°56'10 9.9
2014-Apr-20 04:33N 55°58' E 016°11'10 9.8
2014-Apr-20 03:33N 56°03' E 016°26'10 9.7
2014-Apr-20 02:33N 56°08' E 016°40'  
2014-Apr-15 01:33N 55°40' E 015°32'1616.1
2014-Apr-15 00:34N 55°33' E 015°07'1616.4
2014-Apr-14 23:34N 55°25' E 014°41'1615.9
2014-Apr-14 22:34N 55°13' E 014°23'1616.0
2014-Apr-14 21:34N 55°01' E 014°04'1716.5
2014-Apr-14 20:34N 54°55' E 013°37'1616.4
2014-Apr-14 19:34N 54°50' E 013°10'1616.2
2014-Apr-14 18:34N 54°44' E 012°44'1616.2
2014-Apr-14 17:34N 54°34' E 012°22'1515.4
2014-Apr-14 16:34N 54°24' E 012°02'1616.2
2014-Apr-14 15:33N 54°15' E 011°38'1715.8
2014-Apr-14 14:30N 54°07' E 011°14'5 0.2
2014-Apr-13 10:26N 54°05' E 011°06'1213.6
2014-Apr-13 09:33N 54°13' E 011°23'1413.7
2014-Apr-13 08:33N 54°20' E 011°42'1212.4
2014-Apr-13 07:33N 54°26' E 012°01'1111.2
2014-Apr-13 06:33N 54°34' E 012°14'1313.0
2014-Apr-13 05:34N 54°43' E 012°31'1413.7
2014-Apr-13 04:33N 54°49' E 012°52'1413.6
2014-Apr-13 03:33N 54°54' E 013°14'1313.0
2014-Apr-13 02:33N 54°58' E 013°35'1413.4
2014-Apr-13 01:32N 55°03' E 013°58'1212.7
2014-Apr-13 00:33N 55°11' E 014°14'1313.4
2014-Apr-12 23:33N 55°21' E 014°29'1312.9
2014-Apr-12 22:33N 55°29' E 014°47'1413.5
2014-Apr-12 21:34N 55°36' E 015°07'1413.8
2014-Apr-12 20:33N 55°43' E 015°28'1613.8
2014-Apr-12 19:24N 55°52' E 015°53'1113.6
2014-Apr-12 18:33N 55°58' E 016°10'1313.5
2014-Apr-12 17:33N 56°05' E 016°31'  

Dump ship's entire track history

sailing weather and tide predictions

Helena — SCGL — position and weather